Evangeline, LA (70537)

1:47 AM CST on March 01, 2015 (GMT -0600)
Jennings | Change Station
CLOSE
Current Station
Airport
Location: Jennings,
Elevation: 23 ft
Nearby Weather Stations

Elev 23 ft 30.24 °N, 92.67 °W | Updated 12 minutes ago

Overcast
Overcast
56 °F
Feels Like 56 °F
N
10
Wind Variable Wind from ESE
Gusts 16 mph

Today
High -- | Low -- °F
--% Chance of Precip.
Yesterday
High -- | Low -- °F
Precip. -- in
6:36 AM 6:09 PM
Waxing Gibbous, 83% visible
Pressure 30.23 in
Visibility 10.0 miles
Clouds Scattered Clouds 5000 ft
Mostly Cloudy 9000 ft
Overcast 11000 ft
Dew Point 51 °F
Humidity 86%
Rainfall 0.00 in
Snow Depth Not available.
UV 0 out of 12
Pollen 9.20 out of 12
Air Quality Not available.
Flu Activity Not available.
METAR K3R7 010735Z AUTO 12009G14KT 10SM SCT050 BKN090 OVC110 13/11 A3023 RMK AO2 T01310108

More Conditions Fewer Conditions

Pressure 30.23 in
Visibility 10.0 miles
Clouds Scattered Clouds 5000 ft
Mostly Cloudy 9000 ft
Overcast 11000 ft
Dew Point 51 °F
Humidity 86%
Rainfall 0.00 in
Snow Depth Not available.
UV 0 out of 12
Pollen 9.20 out of 12
Air Quality Not available.
Flu Activity Not available.
METAR K3R7 010735Z AUTO 12009G14KT 10SM SCT050 BKN090 OVC110 13/11 A3023 RMK AO2 T01310108

More Conditions Fewer Conditions

10-Day Weather Forecast

Almanac

Astronomy

Mar. 01, 2015 Rise Set
Actual Time
Civil Twilight
Nautical Twilight
Astronomical Twilight
Moon
Length of Visible Light
Length of Day
Tomorrow will be .
, % of the Moon is Illuminated

Today's Extremes

State Highs State Lows

Community

WunderPhotos

Upload Photos

1,801,347 photos uploaded!

WunderBlogs® & News

Nearby

Air Quality

  Air Quality AQ Index Pollutant
Not available.

Snow Depth

Station Depth Elevation

Earthquake Activity

City Distance Mag. Time & Date
Minimum magnitude displayed is 2.5.

Coastal Water Temperatures

Place Temperature

Nearby Weather Stations